Time;durP1;ratioP1;P1;durP2;ratioP2;P2;SDS_P1;SDS_P2;PMS_P1;PMS_P2;Temp;Humidity;BMP_temperature;BMP_pressure;BME280_temperature;BME280_humidity;BME280_pressure;Samples;Min_cycle;Max_cycle;Signal;HPM_P1;HPM_P2
2023/10/17 00:02:10;;;;;;;51.72;28.60;;;4.00;99.90;;;;;;4937262;28;20048;-76
2023/10/17 00:04:41;;;;;;;47.00;27.83;;;4.00;99.90;;;;;;4911909;28;20057;-74
2023/10/17 00:07:09;;;;;;;43.30;27.63;;;4.10;99.90;;;;;;4925861;28;20046;-73
2023/10/17 00:09:36;;;;;;;43.88;27.90;;;3.90;99.90;;;;;;4932965;28;20073;-74
2023/10/17 00:17:21;;;;;;;62.10;31.25;;;3.90;99.90;;;;;;4954813;28;20207;-74
2023/10/17 00:19:49;;;;;;;58.42;31.50;;;4.00;99.90;;;;;;4947968;29;20176;-73
2023/10/17 00:22:23;;;;;;;63.50;32.95;;;4.10;99.90;;;;;;4937747;28;20094;-73
2023/10/17 00:25:09;;;;;;;69.60;34.90;;;4.00;99.90;;;;;;4955216;29;20115;-74
2023/10/17 00:27:36;;;;;;;74.97;35.80;;;3.90;99.90;;;;;;4937035;28;20048;-74
2023/10/17 00:30:04;;;;;;;69.03;35.45;;;4.00;99.90;;;;;;4935992;29;20359;-74
2023/10/17 00:32:31;;;;;;;60.25;34.05;;;4.00;99.90;;;;;;4928724;29;20500;-76
2023/10/17 00:34:58;;;;;;;64.35;34.28;;;3.90;99.90;;;;;;4951053;28;20098;-74
2023/10/17 00:37:30;;;;;;;68.32;35.40;;;3.90;99.90;;;;;;4934771;28;20058;-73
2023/10/17 00:39:59;;;;;;;77.00;35.38;;;3.80;99.90;;;;;;4940343;29;20691;-73
2023/10/17 00:42:29;;;;;;;72.63;36.78;;;3.80;99.90;;;;;;4930564;28;20078;-75
2023/10/17 00:44:58;;;;;;;59.85;33.47;;;3.90;99.90;;;;;;4962010;28;20293;-73
2023/10/17 00:47:26;;;;;;;65.88;34.70;;;3.70;99.90;;;;;;4935053;28;20051;-73
2023/10/17 00:49:53;;;;;;;63.92;33.85;;;3.60;99.90;;;;;;4960181;28;20043;-73
2023/10/17 00:52:26;;;;;;;60.80;35.35;;;3.50;99.90;;;;;;4924368;28;20233;-72
2023/10/17 00:54:53;;;;;;;50.85;33.78;;;3.40;99.90;;;;;;4949697;29;20043;-73
2023/10/17 00:57:26;;;;;;;56.88;34.25;;;3.50;99.90;;;;;;4924855;28;20686;-75
2023/10/17 00:59:56;;;;;;;68.22;35.75;;;3.60;99.90;;;;;;4914945;29;20040;-76
2023/10/17 01:02:24;;;;;;;69.88;36.83;;;3.60;99.90;;;;;;4937794;28;20027;-75
2023/10/17 01:04:52;;;;;;;75.88;38.50;;;3.60;99.90;;;;;;4959976;28;20063;-76
2023/10/17 01:07:53;;;;;;;69.28;33.90;;;3.50;99.90;;;;;;4948213;28;20035;-75
2023/10/17 01:10:16;;;;;;;61.65;33.42;;;3.40;99.90;;;;;;4952847;28;20062;-74
2023/10/17 01:13:00;;;;;;;64.57;34.17;;;3.30;99.90;;;;;;4943991;28;20683;-75
2023/10/17 01:15:27;;;;;;;66.95;35.40;;;3.20;99.90;;;;;;4925584;28;20043;-76
2023/10/17 01:17:57;;;;;;;75.55;36.83;;;3.30;99.90;;;;;;4944315;28;20082;-78
2023/10/17 01:20:24;;;;;;;77.03;38.28;;;3.30;99.90;;;;;;4924414;28;20047;-77
2023/10/17 01:22:56;;;;;;;82.57;38.17;;;3.20;99.90;;;;;;4945313;28;20051;-73
2023/10/17 01:25:25;;;;;;;74.32;36.88;;;3.10;99.90;;;;;;4925287;28;20067;-74
2023/10/17 01:27:54;;;;;;;76.03;38.13;;;3.10;99.90;;;;;;4926263;29;20043;-74
2023/10/17 01:30:22;;;;;;;63.50;34.83;;;3.00;99.90;;;;;;4908133;28;20133;-73
2023/10/17 01:32:51;;;;;;;67.03;36.22;;;3.00;99.90;;;;;;4925633;29;20236;-74
2023/10/17 01:35:21;;;;;;;65.05;37.03;;;3.00;99.90;;;;;;4936230;28;20672;-75
2023/10/17 01:37:48;;;;;;;60.67;35.22;;;3.00;99.90;;;;;;4924136;29;20055;-74
2023/10/17 01:40:26;;;;;;;58.20;33.25;;;2.90;99.90;;;;;;4921184;28;20559;-74
2023/10/17 01:42:58;;;;;;;67.70;35.95;;;2.90;99.90;;;;;;4923206;29;20046;-75
2023/10/17 01:45:30;;;;;;;70.07;36.90;;;3.00;99.90;;;;;;4935646;28;20530;-74
2023/10/17 01:47:58;;;;;;;66.60;36.15;;;3.00;99.90;;;;;;4923099;29;20057;-74
2023/10/17 01:50:26;;;;;;;65.32;36.67;;;2.90;99.90;;;;;;4932635;28;20043;-74
2023/10/17 01:52:53;;;;;;;75.40;36.90;;;2.90;99.90;;;;;;4918632;29;20047;-75
2023/10/17 01:55:30;;;;;;;74.75;37.45;;;2.90;99.90;;;;;;4922448;28;20145;-74
2023/10/17 01:57:57;;;;;;;76.80;37.20;;;3.00;99.90;;;;;;4902837;29;20405;-75
2023/10/17 02:02:59;;;;;;;75.45;37.78;;;3.00;99.90;;;;;;4937575;28;20478;-74
2023/10/17 02:05:26;;;;;;;86.47;39.10;;;3.00;99.90;;;;;;4920046;28;20490;-74
2023/10/17 02:07:56;;;;;;;92.78;40.50;;;3.10;99.90;;;;;;4921854;29;20106;-74
2023/10/17 02:10:25;;;;;;;94.43;41.28;;;3.10;99.90;;;;;;4935028;28;20043;-74
2023/10/17 02:12:52;;;;;;;82.03;38.15;;;3.00;99.90;;;;;;4936377;28;20078;-74
2023/10/17 02:15:19;;;;;;;94.55;40.28;;;2.80;99.90;;;;;;4903929;28;20138;-75
2023/10/17 02:17:47;;;;;;;90.72;39.88;;;2.80;99.90;;;;;;4920418;28;20044;-74
2023/10/17 02:23:18;;;;;;;96.95;42.88;;;2.80;99.90;;;;;;4937786;28;20068;-76
2023/10/17 02:25:46;;;;;;;112.53;44.85;;;2.80;99.90;;;;;;4919994;28;20038;-75
2023/10/17 02:28:13;;;;;;;110.25;42.58;;;2.80;99.90;;;;;;4922072;28;20051;-74
2023/10/17 02:30:39;;;;;;;95.25;41.45;;;2.80;99.90;;;;;;4918414;28;20044;-74
2023/10/17 02:33:12;;;;;;;86.78;39.97;;;2.80;99.90;;;;;;4935352;28;20081;-74
2023/10/17 02:35:43;;;;;;;85.10;41.33;;;2.80;99.90;;;;;;4917645;28;20051;-74
2023/10/17 02:38:10;;;;;;;94.28;41.97;;;2.80;99.90;;;;;;4937925;28;20346;-73
2023/10/17 02:40:40;;;;;;;90.65;43.13;;;2.80;99.90;;;;;;4915022;28;20411;-75
2023/10/17 02:43:11;;;;;;;100.90;42.67;;;2.70;99.90;;;;;;4919544;29;20039;-73
2023/10/17 02:45:41;;;;;;;94.05;42.83;;;2.80;99.90;;;;;;4919385;28;20043;-74
2023/10/17 02:48:25;;;;;;;98.80;43.30;;;2.90;99.90;;;;;;4919297;29;20467;-74
2023/10/17 02:50:59;;;;;;;89.07;41.85;;;2.90;99.90;;;;;;4933569;28;20585;-75
2023/10/17 02:53:31;;;;;;;98.70;42.78;;;3.00;99.90;;;;;;4935855;28;20050;-74
2023/10/17 02:56:07;;;;;;;93.53;42.90;;;3.00;99.90;;;;;;4921038;29;20466;-74
2023/10/17 02:58:33;;;;;;;104.13;44.95;;;2.80;99.90;;;;;;4915760;28;20043;-74
2023/10/17 03:01:00;;;;;;;111.68;45.65;;;2.80;99.90;;;;;;4921788;28;20050;-74
2023/10/17 03:03:29;;;;;;;100.43;42.90;;;3.00;99.90;;;;;;4929274;28;20130;-73
2023/10/17 03:05:57;;;;;;;113.72;47.13;;;3.10;99.90;;;;;;4913342;29;20054;-73
2023/10/17 03:08:24;;;;;;;140.70;51.10;;;3.20;99.90;;;;;;4905821;29;20051;-76
2023/10/17 03:10:56;;;;;;;127.20;47.47;;;3.30;99.90;;;;;;4903599;28;21910;-75
2023/10/17 03:13:37;;;;;;;113.80;46.85;;;3.40;99.90;;;;;;4922348;28;20106;-74
2023/10/17 03:16:15;;;;;;;130.57;45.30;;;3.40;99.90;;;;;;4924633;29;20047;-75
2023/10/17 03:18:50;;;;;;;129.52;46.28;;;3.40;99.90;;;;;;4917852;28;20542;-76
2023/10/17 03:21:29;;;;;;;124.40;46.60;;;3.30;99.90;;;;;;4936662;28;20043;-75
2023/10/17 03:24:00;;;;;;;127.43;48.45;;;3.30;99.90;;;;;;4937629;28;20102;-76
2023/10/17 03:26:38;;;;;;;115.93;45.55;;;3.20;99.90;;;;;;4916447;28;20049;-75
2023/10/17 03:29:23;;;;;;;111.35;44.25;;;3.20;99.90;;;;;;4908133;29;20043;-75
2023/10/17 03:31:58;;;;;;;111.68;45.63;;;3.10;99.90;;;;;;4902273;28;20043;-76
2023/10/17 03:34:35;;;;;;;111.47;47.47;;;3.10;99.90;;;;;;4922349;28;20043;-75
2023/10/17 03:37:49;;;;;;;116.80;45.20;;;3.20;99.90;;;;;;4938489;28;20043;-75
2023/10/17 03:39:52;;;;;;;121.80;48.17;;;3.10;99.90;;;;;;4929451;28;20047;-75
2023/10/17 03:42:41;;;;;;;140.75;50.75;;;3.10;99.90;;;;;;4919009;28;20047;-75
2023/10/17 03:45:21;;;;;;;126.80;50.45;;;3.20;99.90;;;;;;4930304;29;20043;-74
2023/10/17 03:47:53;;;;;;;126.20;50.05;;;3.30;99.90;;;;;;4919665;28;20521;-75
2023/10/17 03:50:31;;;;;;;116.57;46.80;;;3.30;99.90;;;;;;4923399;28;20142;-74
2023/10/17 03:53:15;;;;;;;119.45;48.13;;;3.30;99.90;;;;;;4925056;28;20047;-75
2023/10/17 03:55:43;;;;;;;123.53;48.65;;;3.40;99.90;;;;;;4919751;28;20138;-75
2023/10/17 03:58:29;;;;;;;128.13;49.75;;;3.50;99.90;;;;;;4916703;29;20048;-75
2023/10/17 04:00:58;;;;;;;139.98;52.67;;;3.60;99.90;;;;;;4915103;28;20058;-75
2023/10/17 04:03:26;;;;;;;140.63;51.40;;;3.50;99.90;;;;;;4923116;28;20043;-75
2023/10/17 04:06:01;;;;;;;119.35;47.53;;;3.50;99.90;;;;;;4935048;28;20055;-75
2023/10/17 04:08:37;;;;;;;135.77;48.38;;;3.50;99.90;;;;;;4934682;28;20517;-75
2023/10/17 04:13:38;;;;;;;125.80;46.83;;;3.30;99.90;;;;;;4934798;28;20520;-75
2023/10/17 04:16:10;;;;;;;109.80;45.60;;;3.30;99.90;;;;;;4936134;28;20107;-74
2023/10/17 04:18:37;;;;;;;118.30;47.75;;;3.40;99.90;;;;;;4916786;28;20127;-75
2023/10/17 04:21:26;;;;;;;127.38;48.58;;;3.40;99.90;;;;;;4933966;28;20121;-75
2023/10/17 04:23:55;;;;;;;136.13;53.72;;;3.40;99.90;;;;;;4923445;28;20039;-75
2023/10/17 04:26:28;;;;;;;134.25;49.33;;;3.50;99.90;;;;;;4934903;28;20206;-75
2023/10/17 04:28:58;;;;;;;151.27;52.78;;;3.60;99.90;;;;;;4927633;28;20052;-76
2023/10/17 04:31:25;;;;;;;166.70;53.95;;;3.70;99.90;;;;;;4920910;28;20083;-75
2023/10/17 04:33:58;;;;;;;168.38;53.83;;;3.90;99.90;;;;;;4937312;28;20039;-77
2023/10/17 04:36:28;;;;;;;170.70;56.88;;;4.00;99.90;;;;;;4934294;28;20041;-75
2023/10/17 04:44:38;;;;;;;181.80;54.40;;;4.00;99.90;;;;;;4935228;28;20691;-75
2023/10/17 04:48:00;;;;;;;164.45;51.08;;;4.20;99.90;;;;;;4919730;29;20799;-77
2023/10/17 04:49:55;;;;;;;179.40;53.47;;;4.40;99.90;;;;;;4925798;28;20055;-75
2023/10/17 04:52:40;;;;;;;161.88;47.72;;;4.50;99.90;;;;;;4917203;28;20094;-75
2023/10/17 04:55:18;;;;;;;169.30;50.17;;;4.60;99.90;;;;;;4925186;28;20043;-76
2023/10/17 05:03:14;;;;;;;130.63;44.50;;;4.30;99.90;;;;;;4933999;28;20047;-74
2023/10/17 05:06:10;;;;;;;121.50;42.30;;;4.30;99.90;;;;;;4916947;28;20129;-75
2023/10/17 05:09:00;;;;;;;138.63;43.97;;;4.50;99.90;;;;;;4931741;28;20118;-74
2023/10/17 06:18:07;;;;;;;100.88;36.85;;;4.50;99.90;;;;;;4917611;28;20051;-74
2023/10/17 06:21:18;;;;;;;103.57;38.42;;;4.50;99.90;;;;;;4929343;28;20044;-75
2023/10/17 06:24:06;;;;;;;101.28;36.17;;;4.60;99.90;;;;;;4927012;28;20140;-73
2023/10/17 06:26:58;;;;;;;116.95;36.40;;;4.70;99.90;;;;;;4933175;28;20062;-74
2023/10/17 06:32:16;;;;;;;133.32;38.95;;;4.60;99.90;;;;;;4897930;28;20039;-74
2023/10/17 06:34:45;;;;;;;132.18;40.50;;;4.60;99.90;;;;;;4916698;28;20391;-74
2023/10/17 06:37:28;;;;;;;141.85;41.63;;;4.70;99.90;;;;;;4918802;28;20065;-75
2023/10/17 06:39:58;;;;;;;188.82;66.75;;;4.70;99.90;;;;;;4918446;28;20058;-75
2023/10/17 06:42:29;;;;;;;101.13;39.40;;;4.80;99.90;;;;;;4931377;28;20047;-73
2023/10/17 06:45:07;;;;;;;113.47;40.75;;;4.80;99.90;;;;;;4917562;28;20043;-74
2023/10/17 06:47:47;;;;;;;109.72;35.83;;;4.60;99.90;;;;;;4933282;28;20134;-74
2023/10/17 06:52:54;;;;;;;108.18;35.50;;;4.70;99.90;;;;;;4915299;28;20051;-73
2023/10/17 06:55:28;;;;;;;266.45;46.55;;;4.70;99.90;;;;;;4917947;29;20081;-75
2023/10/17 06:57:57;;;;;;;127.07;34.28;;;4.70;99.90;;;;;;4930071;28;20043;-73
2023/10/17 07:00:42;;;;;;;96.38;32.60;;;4.70;99.90;;;;;;4934093;28;20363;-74
2023/10/17 07:03:13;;;;;;;133.35;35.13;;;4.70;99.90;;;;;;4932397;28;20046;-74
2023/10/17 07:05:40;;;;;;;94.57;31.35;;;4.90;99.90;;;;;;4917036;28;20043;-74
2023/10/17 07:08:14;;;;;;;150.82;36.25;;;4.90;99.90;;;;;;4930104;28;20098;-74
2023/10/17 07:10:58;;;;;;;197.55;37.10;;;4.70;99.90;;;;;;4914148;28;20042;-74
2023/10/17 07:13:55;;;;;;;298.85;41.10;;;4.70;99.90;;;;;;4916704;29;20058;-76
2023/10/17 07:16:33;;;;;;;222.68;38.10;;;4.60;99.90;;;;;;4903030;29;20051;-75
2023/10/17 07:24:23;;;;;;;401.05;55.08;;;4.60;99.90;;;;;;4938509;28;20031;-74
2023/10/17 07:26:54;;;;;;;203.73;40.00;;;4.60;99.90;;;;;;4933273;28;20047;-74
2023/10/17 07:29:22;;;;;;;109.90;30.85;;;4.70;99.90;;;;;;4931917;28;20049;-74
2023/10/17 07:31:52;;;;;;;102.82;32.10;;;4.70;99.90;;;;;;4918616;28;20058;-74
2023/10/17 07:34:23;;;;;;;113.88;34.38;;;4.90;99.90;;;;;;4934560;28;20110;-73
2023/10/17 07:36:58;;;;;;;95.22;34.83;;;5.10;99.90;;;;;;4905059;28;20043;-74
2023/10/17 07:39:29;;;;;;;149.85;38.28;;;5.20;99.90;;;;;;4919699;29;20039;-76
2023/10/17 07:41:57;;;;;;;70.50;29.13;;;5.00;99.90;;;;;;4919438;28;20057;-76
2023/10/17 07:44:27;;;;;;;91.10;32.95;;;5.10;99.90;;;;;;4935149;28;20043;-75
2023/10/17 07:47:08;;;;;;;69.35;31.05;;;5.10;99.90;;;;;;4925873;28;20039;-76
2023/10/17 07:49:37;;;;;;;91.13;32.97;;;5.00;99.90;;;;;;4937034;28;20607;-74
2023/10/17 07:52:17;;;;;;;73.20;35.78;;;5.10;99.90;;;;;;4916866;28;20528;-73
2023/10/17 07:54:45;;;;;;;57.10;27.35;;;5.20;99.90;;;;;;4933920;28;20047;-77
2023/10/17 07:57:22;;;;;;;67.97;30.42;;;5.10;99.90;;;;;;4923931;28;20154;-77
2023/10/17 07:59:51;;;;;;;67.63;29.85;;;5.20;99.90;;;;;;4935447;28;20075;-74
2023/10/17 08:02:20;;;;;;;91.03;34.22;;;5.20;99.90;;;;;;4934029;28;20728;-75
2023/10/17 08:04:53;;;;;;;66.80;31.40;;;5.20;99.90;;;;;;4932524;28;20815;-73
2023/10/17 08:07:22;;;;;;;97.68;31.95;;;5.30;99.90;;;;;;4929621;28;20792;-75
2023/10/17 08:09:59;;;;;;;99.43;38.17;;;5.20;99.90;;;;;;4918168;28;20709;-73
2023/10/17 08:12:29;;;;;;;87.72;37.88;;;5.10;99.90;;;;;;4936550;28;20209;-74
2023/10/17 08:14:59;;;;;;;87.85;42.22;;;5.10;99.90;;;;;;4933497;28;20498;-73
2023/10/17 08:17:28;;;;;;;78.65;38.10;;;5.10;99.90;;;;;;4920056;28;20283;-74
2023/10/17 08:25:53;;;;;;;80.72;35.67;;;5.10;99.90;;;;;;4933734;28;20104;-76
2023/10/17 08:28:33;;;;;;;81.20;33.50;;;5.10;99.90;;;;;;4932197;28;20055;-74
2023/10/17 08:33:56;;;;;;;84.13;33.75;;;5.30;99.90;;;;;;4935073;28;20055;-74
2023/10/17 08:36:28;;;;;;;75.97;35.47;;;5.40;99.90;;;;;;4936062;28;21421;-74
2023/10/17 08:39:03;;;;;;;83.43;29.52;;;5.40;99.90;;;;;;4917123;28;20053;-74
2023/10/17 08:41:30;;;;;;;70.90;30.88;;;5.40;99.90;;;;;;4933324;28;20414;-74
2023/10/17 08:43:56;;;;;;;66.22;32.58;;;5.40;99.90;;;;;;4917130;28;20066;-74
2023/10/17 08:46:23;;;;;;;81.10;30.35;;;5.30;99.90;;;;;;4933930;28;20040;-76
2023/10/17 08:48:56;;;;;;;68.05;28.55;;;5.20;99.90;;;;;;4933511;28;20051;-75
2023/10/17 08:51:25;;;;;;;52.90;28.27;;;5.20;99.90;;;;;;4920469;28;20918;-74
2023/10/17 08:53:55;;;;;;;92.60;42.33;;;5.10;99.90;;;;;;4932883;28;20046;-73
2023/10/17 08:56:27;;;;;;;75.80;37.95;;;5.30;99.90;;;;;;4935672;28;20058;-74
2023/10/17 08:59:03;;;;;;;95.93;46.42;;;5.30;99.90;;;;;;4934218;28;20993;-75
2023/10/17 09:01:30;;;;;;;103.80;37.75;;;5.60;99.90;;;;;;4920923;28;20048;-75
2023/10/17 09:03:58;;;;;;;75.97;33.85;;;5.50;99.90;;;;;;4940121;28;20043;-75
2023/10/17 09:11:31;;;;;;;49.05;23.58;;;5.40;99.90;;;;;;4920337;28;20055;-76
2023/10/17 09:17:00;;;;;;;89.75;35.33;;;5.60;99.90;;;;;;4925544;28;20051;-76
2023/10/17 09:19:27;;;;;;;66.65;26.13;;;5.70;99.90;;;;;;4935077;28;20039;-76
2023/10/17 09:21:54;;;;;;;51.22;25.83;;;5.70;99.90;;;;;;4933891;28;20564;-75
2023/10/17 09:24:29;;;;;;;53.90;23.83;;;5.70;99.90;;;;;;4938512;28;20097;-75
2023/10/17 09:26:58;;;;;;;59.28;24.20;;;5.60;99.90;;;;;;4931749;28;20572;-76
2023/10/17 09:29:27;;;;;;;61.65;24.40;;;5.80;99.90;;;;;;4935516;28;20070;-76
2023/10/17 09:31:55;;;;;;;52.72;24.98;;;6.10;99.90;;;;;;4917739;28;20678;-75
2023/10/17 09:34:26;;;;;;;43.40;21.73;;;5.90;99.90;;;;;;4936575;28;20071;-76
2023/10/17 09:36:58;;;;;;;43.97;17.42;;;5.90;99.90;;;;;;4917616;28;20070;-75
2023/10/17 09:39:29;;;;;;;53.65;23.65;;;5.90;99.90;;;;;;4922744;28;20792;-76
2023/10/17 09:42:05;;;;;;;44.47;22.10;;;5.90;99.90;;;;;;4931778;28;20077;-76
2023/10/17 09:44:32;;;;;;;46.95;21.95;;;6.00;99.90;;;;;;4920432;28;20035;-76
2023/10/17 09:47:06;;;;;;;43.75;20.02;;;6.00;99.90;;;;;;4911367;28;20051;-76
2023/10/17 09:49:44;;;;;;;69.25;22.17;;;6.00;99.90;;;;;;4933086;28;20051;-75
2023/10/17 09:52:14;;;;;;;46.08;22.88;;;5.90;99.90;;;;;;4917807;28;20039;-77
2023/10/17 09:54:41;;;;;;;39.05;21.58;;;5.90;99.90;;;;;;4933095;28;20055;-75
2023/10/17 09:57:14;;;;;;;43.00;21.88;;;5.90;99.90;;;;;;4907216;28;20046;-75
2023/10/17 10:00:09;;;;;;;53.05;26.77;;;6.10;99.90;;;;;;4930944;28;20051;-76
2023/10/17 10:02:38;;;;;;;47.88;24.25;;;6.20;99.90;;;;;;4921897;28;20043;-75
2023/10/17 10:05:24;;;;;;;58.08;27.05;;;6.30;99.90;;;;;;4926042;28;20047;-75
2023/10/17 10:07:52;;;;;;;44.90;23.02;;;6.30;99.90;;;;;;4930486;28;20230;-75
2023/10/17 10:10:48;;;;;;;47.53;23.30;;;6.40;99.90;;;;;;4932064;28;20678;-75
2023/10/17 10:13:15;;;;;;;49.80;23.13;;;6.30;99.90;;;;;;4918206;28;20044;-75
2023/10/17 10:15:55;;;;;;;51.03;23.60;;;6.30;99.90;;;;;;4931512;28;20047;-74
2023/10/17 10:18:40;;;;;;;44.72;24.42;;;6.30;99.90;;;;;;4932271;28;20049;-75
2023/10/17 10:21:08;;;;;;;43.22;21.45;;;6.40;99.90;;;;;;4915375;28;20047;-74
2023/10/17 10:23:37;;;;;;;46.38;24.65;;;6.30;99.90;;;;;;4923813;28;20126;-75
2023/10/17 10:26:19;;;;;;;40.92;22.05;;;6.50;99.90;;;;;;4932378;28;20054;-75
2023/10/17 10:28:47;;;;;;;49.83;24.67;;;6.60;99.90;;;;;;4936651;28;20050;-74
2023/10/17 10:31:25;;;;;;;38.90;24.80;;;6.70;99.90;;;;;;4914619;28;21847;-74
2023/10/17 10:33:54;;;;;;;28.35;19.75;;;6.90;99.90;;;;;;4932602;28;20098;-76
2023/10/17 10:36:26;;;;;;;36.03;22.88;;;7.10;99.90;;;;;;4931238;28;20043;-74
2023/10/17 10:38:55;;;;;;;33.10;23.02;;;7.20;99.90;;;;;;4934932;28;20550;-75
2023/10/17 10:41:22;;;;;;;32.53;20.92;;;7.20;99.90;;;;;;4917660;28;20055;-76
2023/10/17 10:43:58;;;;;;;28.85;21.65;;;7.30;99.90;;;;;;4918127;28;20471;-74
2023/10/17 10:46:25;;;;;;;30.13;21.63;;;7.40;99.90;;;;;;4935048;28;20043;-76
2023/10/17 10:48:53;;;;;;;30.58;24.52;;;7.50;99.90;;;;;;4919558;28;20660;-75
2023/10/17 10:51:27;;;;;;;33.85;24.27;;;7.70;99.90;;;;;;4918073;29;20477;-75
2023/10/17 10:53:55;;;;;;;27.83;23.75;;;7.60;99.90;;;;;;4935234;28;20521;-74
2023/10/17 10:56:27;;;;;;;26.45;23.83;;;7.70;99.90;;;;;;4916387;28;20109;-75
2023/10/17 10:58:59;;;;;;;27.77;24.88;;;7.60;99.90;;;;;;4934481;28;20039;-74
2023/10/17 11:01:27;;;;;;;30.48;24.77;;;7.70;99.90;;;;;;4915492;28;20165;-75
2023/10/17 11:03:54;;;;;;;27.27;24.88;;;7.80;99.90;;;;;;4916861;28;20055;-73
2023/10/17 11:06:29;;;;;;;27.50;25.20;;;8.00;99.90;;;;;;4931070;28;20046;-75
2023/10/17 11:08:56;;;;;;;;;;;8.10;99.90;;;;;;4933379;28;20048;-73
2023/10/17 11:11:23;;;;;;;28.38;25.48;;;7.90;99.90;;;;;;4925654;28;19952;-75
2023/10/17 11:13:56;;;;;;;30.80;27.65;;;7.80;99.90;;;;;;4931595;28;20051;-74
2023/10/17 11:16:25;;;;;;;29.05;26.08;;;8.00;99.90;;;;;;4934443;28;20059;-74
2023/10/17 11:18:53;;;;;;;27.98;25.38;;;8.10;99.90;;;;;;4934495;28;20138;-75
2023/10/17 11:21:22;;;;;;;28.70;25.98;;;8.40;99.90;;;;;;4900952;28;20648;-74
2023/10/17 11:23:59;;;;;;;28.98;26.38;;;8.30;99.90;;;;;;4916541;28;20039;-75
2023/10/17 11:26:30;;;;;;;28.83;26.27;;;8.20;99.90;;;;;;4934140;28;20106;-74
2023/10/17 11:28:58;;;;;;;30.00;27.13;;;8.10;99.90;;;;;;4915682;28;20055;-74
2023/10/17 11:31:26;;;;;;;27.70;25.17;;;8.20;99.90;;;;;;4917798;28;20512;-74
2023/10/17 11:34:04;;;;;;;28.33;25.90;;;8.00;99.90;;;;;;4923339;28;20047;-75
2023/10/17 11:37:02;;;;;;;28.85;26.13;;;7.90;99.90;;;;;;4919842;28;20057;-74
2023/10/17 11:39:41;;;;;;;28.88;26.27;;;8.00;99.90;;;;;;4905466;28;21339;-73
2023/10/17 11:42:09;;;;;;;30.80;28.10;;;8.10;99.90;;;;;;4905564;28;20780;-74
2023/10/17 11:44:46;;;;;;;31.90;29.05;;;8.00;99.90;;;;;;4936490;28;20047;-73
2023/10/17 11:47:26;;;;;;;29.00;26.40;;;7.90;99.90;;;;;;4938385;28;20039;-73
2023/10/17 11:49:54;;;;;;;27.35;25.15;;;8.00;99.90;;;;;;4924959;28;20058;-75
2023/10/17 11:52:22;;;;;;;29.30;26.73;;;8.20;99.90;;;;;;4936209;28;20465;-73
2023/10/17 11:55:03;;;;;;;28.63;26.25;;;8.20;99.90;;;;;;4922034;28;20067;-74
2023/10/17 11:57:33;;;;;;;27.33;25.10;;;8.30;99.90;;;;;;4937485;28;20631;-74
2023/10/17 12:00:17;;;;;;;27.30;25.08;;;8.30;99.90;;;;;;4929926;28;20512;-74
2023/10/17 12:02:47;;;;;;;28.08;25.63;;;8.60;99.90;;;;;;4931959;28;20574;-75
2023/10/17 12:05:19;;;;;;;28.33;25.77;;;8.70;99.90;;;;;;4927042;28;20032;-73
2023/10/17 12:07:49;;;;;;;28.40;26.10;;;8.70;99.90;;;;;;4939400;28;20632;-75
2023/10/17 12:10:17;;;;;;;28.50;26.10;;;9.00;99.90;;;;;;4938846;28;20063;-75
2023/10/17 12:12:44;;;;;;;27.02;24.80;;;9.30;99.90;;;;;;4921562;28;20047;-74
2023/10/17 12:15:13;;;;;;;27.60;25.40;;;9.20;99.90;;;;;;4931956;28;20379;-74
2023/10/17 12:17:41;;;;;;;28.65;26.52;;;9.20;99.90;;;;;;4926051;28;20138;-74
2023/10/17 12:20:12;;;;;;;28.60;26.20;;;9.30;99.90;;;;;;4921477;28;20047;-74
2023/10/17 12:22:42;;;;;;;27.55;25.55;;;9.20;99.90;;;;;;4903189;28;20062;-74
2023/10/17 12:25:16;;;;;;;27.67;25.30;;;9.30;99.90;;;;;;4921724;28;20137;-74
2023/10/17 12:27:46;;;;;;;28.85;26.75;;;9.30;99.90;;;;;;4921180;28;20130;-74
2023/10/17 12:30:22;;;;;;;28.42;26.25;;;9.30;99.90;;;;;;4936291;28;20047;-74
2023/10/17 12:32:49;;;;;;;30.13;27.83;;;9.50;99.90;;;;;;4923933;28;20043;-74
2023/10/17 12:35:16;;;;;;;32.28;29.55;;;9.50;99.90;;;;;;4937215;28;20035;-74
2023/10/17 12:37:43;;;;;;;29.17;26.92;;;9.70;99.90;;;;;;4924089;28;20051;-74
2023/10/17 12:40:18;;;;;;;29.73;27.25;;;10.00;99.90;;;;;;4938994;28;20520;-74
2023/10/17 12:42:48;;;;;;;28.95;26.65;;;10.20;99.90;;;;;;4936912;28;20051;-74
2023/10/17 12:45:17;;;;;;;29.38;27.13;;;9.90;99.90;;;;;;4921747;28;20048;-73
2023/10/17 12:47:45;;;;;;;28.40;26.17;;;9.90;99.90;;;;;;4906077;28;20055;-74
2023/10/17 12:50:14;;;;;;;28.58;26.20;;;9.80;99.90;;;;;;4925922;28;20162;-74
2023/10/17 12:52:41;;;;;;;28.38;26.23;;;9.90;99.90;;;;;;4935835;28;20036;-74
2023/10/17 12:55:08;;;;;;;29.13;26.77;;;10.20;99.90;;;;;;4937674;28;20055;-74
2023/10/17 12:57:38;;;;;;;26.88;24.98;;;10.10;99.90;;;;;;4920499;28;20578;-74
2023/10/17 13:00:09;;;;;;;28.38;26.38;;;9.90;99.90;;;;;;4938484;28;20051;-74
2023/10/17 13:02:38;;;;;;;27.60;25.60;;;10.00;99.90;;;;;;4936513;28;20065;-75
2023/10/17 13:05:10;;;;;;;25.50;23.80;;;10.10;99.90;;;;;;4940839;28;20046;-75
2023/10/17 13:07:39;;;;;;;27.30;25.08;;;10.10;99.90;;;;;;4937177;28;20055;-75
2023/10/17 13:10:07;;;;;;;26.73;24.67;;;10.00;99.90;;;;;;4909552;28;20039;-75
2023/10/17 13:12:35;;;;;;;26.35;24.65;;;10.10;99.90;;;;;;4935130;28;20047;-74
2023/10/17 13:15:06;;;;;;;26.85;24.85;;;10.20;99.90;;;;;;4922177;28;20047;-74
2023/10/17 13:17:34;;;;;;;26.23;24.33;;;10.30;99.90;;;;;;4924007;28;20114;-74
2023/10/17 13:20:10;;;;;;;25.77;23.80;;;10.60;99.90;;;;;;4920348;28;20051;-74
2023/10/17 13:22:52;;;;;;;25.15;23.55;;;10.30;99.90;;;;;;4935864;28;20059;-74
2023/10/17 13:25:18;;;;;;;26.40;24.35;;;10.20;99.90;;;;;;4936940;28;20054;-75
2023/10/17 13:27:45;;;;;;;26.10;24.50;;;10.20;99.90;;;;;;4934907;28;20058;-75
2023/10/17 13:30:13;;;;;;;27.45;25.45;;;10.20;99.90;;;;;;4935435;28;20529;-73
2023/10/17 13:32:40;;;;;;;27.70;25.95;;;10.20;99.90;;;;;;4937042;28;20694;-74
2023/10/17 13:35:08;;;;;;;27.42;25.73;;;10.30;99.90;;;;;;4936150;28;20043;-74
2023/10/17 13:37:35;;;;;;;28.67;26.60;;;10.30;99.90;;;;;;4916447;28;20434;-73
2023/10/17 13:40:02;;;;;;;28.58;26.80;;;10.60;99.90;;;;;;4924842;28;20406;-75
2023/10/17 13:42:30;;;;;;;26.63;24.92;;;10.60;99.90;;;;;;4937734;28;20059;-75
2023/10/17 13:44:59;;;;;;;26.98;25.20;;;10.80;99.90;;;;;;4920189;28;20138;-74
2023/10/17 13:47:26;;;;;;;27.33;25.52;;;10.90;99.90;;;;;;4907622;28;20237;-74
2023/10/17 13:49:54;;;;;;;26.33;24.63;;;10.90;99.90;;;;;;4922318;28;20075;-75
2023/10/17 13:52:21;;;;;;;25.63;23.92;;;10.90;99.90;;;;;;4919624;28;20050;-70
2023/10/17 13:54:48;;;;;;;30.75;28.25;;;11.10;99.90;;;;;;4915680;28;20051;-71
2023/10/17 13:57:16;;;;;;;27.15;25.52;;;11.00;99.90;;;;;;4916632;28;20047;-71
2023/10/17 13:59:46;;;;;;;26.63;24.83;;;10.90;99.90;;;;;;4915460;28;20051;-71
2023/10/17 14:02:17;;;;;;;26.42;24.65;;;10.90;99.90;;;;;;4919198;28;20127;-72
2023/10/17 14:04:45;;;;;;;25.42;23.75;;;11.00;99.90;;;;;;4921773;28;20134;-71
2023/10/17 14:07:12;;;;;;;24.75;22.98;;;11.00;99.90;;;;;;4933135;28;20071;-70
2023/10/17 14:09:39;;;;;;;25.35;23.63;;;11.20;99.90;;;;;;4931361;28;20051;-72
2023/10/17 14:12:09;;;;;;;26.20;24.25;;;11.00;99.90;;;;;;4931936;28;20410;-71
2023/10/17 14:14:37;;;;;;;25.00;23.30;;;10.80;99.90;;;;;;4907090;28;20101;-69
2023/10/17 14:17:04;;;;;;;24.88;23.27;;;10.60;99.90;;;;;;4930437;28;20656;-71
2023/10/17 14:27:25;;;;;;;26.77;24.80;;;10.10;99.90;;;;;;4934574;28;20043;-70
2023/10/17 14:29:52;;;;;;;27.73;25.52;;;10.10;99.90;;;;;;4922150;28;20505;-70
2023/10/17 14:32:21;;;;;;;25.77;23.88;;;9.90;99.90;;;;;;4914682;28;20569;-72
2023/10/17 14:34:49;;;;;;;27.42;25.15;;;10.00;99.90;;;;;;4919168;28;20588;-71
2023/10/17 14:37:27;;;;;;;26.50;24.70;;;10.00;99.90;;;;;;4922786;28;20138;-75
2023/10/17 14:40:11;;;;;;;28.98;26.90;;;9.90;99.90;;;;;;4930888;28;20062;-73
2023/10/17 14:42:39;;;;;;;25.75;23.85;;;9.80;99.90;;;;;;4930518;28;20128;-72
2023/10/17 14:45:08;;;;;;;27.20;25.13;;;9.80;99.90;;;;;;4933070;28;20099;-71
2023/10/17 14:47:35;;;;;;;26.50;24.58;;;9.80;99.90;;;;;;4934196;28;20098;-72
2023/10/17 14:50:06;;;;;;;28.65;26.25;;;9.70;99.90;;;;;;4898100;28;20039;-71
2023/10/17 14:52:34;;;;;;;27.50;25.70;;;9.70;99.90;;;;;;4929396;28;20047;-72
2023/10/17 14:55:02;;;;;;;28.00;26.00;;;9.70;99.90;;;;;;4914655;28;20111;-72
2023/10/17 14:57:29;;;;;;;28.77;26.77;;;9.70;99.90;;;;;;4928400;28;20779;-72
2023/10/17 14:59:56;;;;;;;29.60;27.50;;;9.70;99.90;;;;;;4912957;28;20051;-71
2023/10/17 15:02:23;;;;;;;29.13;27.13;;;9.70;99.90;;;;;;4930965;28;20489;-72
2023/10/17 15:04:52;;;;;;;29.17;27.08;;;9.60;99.90;;;;;;4932390;28;20102;-72